Time;durP1;ratioP1;P1;durP2;ratioP2;P2;SDS_P1;SDS_P2;PMS_P1;PMS_P2;Temp;Humidity;BMP_temperature;BMP_pressure;BME280_temperature;BME280_humidity;BME280_pressure;Samples;Min_cycle;Max_cycle;Signal;HPM_P1;HPM_P2
2024/04/16 00:00:05;;;;;;;2.27;0.40;;;7.30;99.90;;;;;;5443685;26;20580;-79
2024/04/16 00:02:31;;;;;;;3.10;0.40;;;7.20;99.90;;;;;;5435833;26;20828;-79
2024/04/16 00:04:58;;;;;;;6.13;0.60;;;7.10;99.90;;;;;;5445109;26;20461;-78
2024/04/16 00:07:24;;;;;;;1.80;0.40;;;7.10;99.90;;;;;;5445633;26;20228;-79
2024/04/16 00:09:49;;;;;;;1.97;0.40;;;7.00;99.90;;;;;;5435044;26;20466;-79
2024/04/16 00:12:15;;;;;;;1.60;0.50;;;7.00;99.90;;;;;;5437925;26;20341;-78
2024/04/16 00:14:40;;;;;;;1.70;0.40;;;6.90;99.90;;;;;;5441020;26;20279;-79
2024/04/16 00:17:06;;;;;;;1.70;0.40;;;6.90;99.90;;;;;;5440413;26;20330;-79
2024/04/16 00:19:31;;;;;;;1.80;0.40;;;6.90;99.90;;;;;;5443150;26;20220;-79
2024/04/16 00:21:57;;;;;;;1.40;0.30;;;6.90;99.90;;;;;;5438692;26;20900;-79
2024/04/16 00:24:23;;;;;;;1.53;0.50;;;6.90;99.90;;;;;;5441938;26;20237;-79
2024/04/16 00:26:49;;;;;;;1.83;0.47;;;6.90;99.90;;;;;;5445437;26;20534;-79
2024/04/16 00:29:14;;;;;;;2.80;0.50;;;6.90;99.90;;;;;;5442883;26;20315;-79
2024/04/16 00:31:40;;;;;;;1.90;0.40;;;6.90;99.90;;;;;;5443139;26;20258;-79
2024/04/16 00:34:06;;;;;;;1.50;0.33;;;6.90;99.90;;;;;;5442014;26;20343;-79
2024/04/16 00:36:32;;;;;;;1.60;0.40;;;6.90;99.90;;;;;;5440449;26;20239;-79
2024/04/16 00:38:58;;;;;;;1.40;0.30;;;6.80;99.90;;;;;;5444273;26;20504;-78
2024/04/16 00:41:23;;;;;;;1.50;0.30;;;6.80;99.90;;;;;;5436603;26;20274;-79
2024/04/16 00:43:49;;;;;;;2.07;0.37;;;6.80;99.90;;;;;;5445462;26;20232;-79
2024/04/16 00:46:15;;;;;;;1.60;0.37;;;6.80;99.90;;;;;;5440298;26;20274;-78
2024/04/16 00:48:40;;;;;;;2.00;0.40;;;6.80;99.90;;;;;;5445041;26;20224;-78
2024/04/16 00:51:07;;;;;;;2.10;0.40;;;6.80;99.90;;;;;;5435948;26;20250;-78
2024/04/16 00:53:33;;;;;;;1.50;0.30;;;6.80;99.90;;;;;;5442116;26;20862;-79
2024/04/16 00:55:59;;;;;;;1.97;0.50;;;6.70;99.90;;;;;;5445421;26;20509;-78
2024/04/16 01:08:31;;;;;;;1.73;0.60;;;6.50;99.90;;;;;;5434590;26;20514;-79
2024/04/16 01:10:57;;;;;;;2.90;0.30;;;6.50;99.90;;;;;;5451379;26;20465;-78
2024/04/16 01:13:22;;;;;;;1.70;0.30;;;6.50;99.90;;;;;;5445384;26;20349;-79
2024/04/16 01:15:48;;;;;;;1.40;0.30;;;6.50;99.90;;;;;;5446242;26;20590;-79
2024/04/16 01:18:13;;;;;;;1.70;0.47;;;6.50;99.90;;;;;;5442439;26;20223;-79
2024/04/16 01:20:39;;;;;;;1.70;0.40;;;6.60;99.90;;;;;;5441524;26;20968;-79
2024/04/16 01:23:05;;;;;;;1.90;0.40;;;6.60;99.90;;;;;;5443513;26;20340;-78
2024/04/16 01:25:32;;;;;;;1.57;0.40;;;6.60;99.90;;;;;;5443881;26;20227;-80
2024/04/16 01:27:57;;;;;;;1.80;0.40;;;6.50;99.90;;;;;;5448301;26;20259;-80
2024/04/16 01:30:23;;;;;;;2.03;0.30;;;6.50;99.90;;;;;;5444611;26;20460;-80
2024/04/16 01:32:48;;;;;;;1.97;0.50;;;6.40;99.90;;;;;;5452474;26;21030;-80
2024/04/16 01:35:14;;;;;;;1.50;0.40;;;6.30;99.90;;;;;;5454730;26;20216;-81
2024/04/16 01:37:40;;;;;;;1.60;0.40;;;6.30;99.90;;;;;;5452830;26;20294;-80
2024/04/16 01:40:06;;;;;;;1.50;0.40;;;6.20;99.90;;;;;;5454537;26;20216;-80
2024/04/16 01:42:31;;;;;;;1.63;0.30;;;6.20;99.90;;;;;;5452301;26;20266;-80
2024/04/16 01:44:59;;;;;;;1.50;0.40;;;6.20;99.90;;;;;;5453004;26;20994;-80
2024/04/16 01:47:24;;;;;;;1.90;0.60;;;6.10;99.90;;;;;;5452005;26;20238;-80
2024/04/16 01:49:50;;;;;;;2.63;0.50;;;6.10;99.90;;;;;;5452617;26;20555;-79
2024/04/16 01:52:15;;;;;;;1.93;0.43;;;6.10;99.90;;;;;;5452242;26;20657;-80
2024/04/16 01:54:41;;;;;;;1.87;0.40;;;6.10;99.90;;;;;;5452184;26;20235;-79
2024/04/16 01:57:06;;;;;;;1.80;0.40;;;6.10;99.90;;;;;;5451229;26;20223;-79
2024/04/16 01:59:32;;;;;;;1.90;0.50;;;6.00;99.90;;;;;;5449694;26;20231;-79
2024/04/16 02:01:58;;;;;;;2.00;0.47;;;6.00;99.90;;;;;;5449760;26;20342;-79
2024/04/16 02:04:23;;;;;;;2.83;0.50;;;6.00;99.90;;;;;;5449166;26;20238;-79
2024/04/16 02:06:49;;;;;;;1.60;0.40;;;5.90;99.90;;;;;;5448807;26;20280;-79
2024/04/16 02:09:14;;;;;;;2.07;0.60;;;5.90;99.90;;;;;;5449207;26;20254;-77
2024/04/16 02:11:40;;;;;;;1.60;0.50;;;5.90;99.90;;;;;;5443346;26;20282;-78
2024/04/16 02:14:05;;;;;;;2.20;0.50;;;5.80;99.90;;;;;;5438501;26;20310;-78
2024/04/16 02:16:31;;;;;;;1.80;0.50;;;5.80;99.90;;;;;;5446960;26;20226;-77
2024/04/16 02:18:57;;;;;;;1.80;0.53;;;5.80;99.90;;;;;;5441173;26;20243;-78
2024/04/16 02:21:22;;;;;;;2.47;0.40;;;5.70;99.90;;;;;;5444977;26;20267;-78
2024/04/16 02:23:48;;;;;;;1.60;0.50;;;5.70;99.90;;;;;;5435541;26;20273;-78
2024/04/16 02:26:13;;;;;;;1.80;0.60;;;5.70;99.90;;;;;;5428710;26;20226;-78
2024/04/16 02:28:39;;;;;;;1.60;0.60;;;5.70;99.90;;;;;;5415076;26;20221;-78
2024/04/16 02:31:05;;;;;;;1.70;0.60;;;5.70;99.90;;;;;;5414447;26;20227;-78
2024/04/16 02:33:30;;;;;;;4.63;0.80;;;5.60;99.90;;;;;;5408927;26;20240;-78
2024/04/16 02:36:02;;;;;;;2.33;0.80;;;5.60;99.90;;;;;;5412310;26;20302;-78
2024/04/16 02:38:28;;;;;;;1.90;0.50;;;5.50;99.90;;;;;;5408724;26;20251;-77
2024/04/16 02:40:54;;;;;;;1.70;0.50;;;5.40;99.90;;;;;;5413308;26;20465;-78
2024/04/16 02:43:20;;;;;;;3.20;0.70;;;5.40;99.90;;;;;;5413817;26;20275;-78
2024/04/16 02:45:45;;;;;;;1.80;0.80;;;5.20;99.90;;;;;;5417837;26;20571;-77
2024/04/16 02:48:11;;;;;;;2.10;0.80;;;5.10;99.90;;;;;;5417803;26;20279;-77
2024/04/16 02:50:37;;;;;;;2.97;0.80;;;5.10;99.90;;;;;;5410496;26;20226;-77
2024/04/16 02:53:03;;;;;;;3.20;0.70;;;5.00;99.90;;;;;;5412344;26;20243;-78
2024/04/16 02:55:29;;;;;;;2.33;0.83;;;4.90;99.90;;;;;;5428757;26;20454;-76
2024/04/16 02:57:54;;;;;;;3.63;0.70;;;4.60;99.90;;;;;;5413417;26;20268;-77
2024/04/16 03:00:20;;;;;;;2.30;0.70;;;4.30;99.90;;;;;;5412760;26;20360;-77
2024/04/16 03:02:46;;;;;;;1.80;0.60;;;4.20;99.90;;;;;;5413475;26;20222;-77
2024/04/16 03:05:11;;;;;;;4.23;0.83;;;4.00;99.90;;;;;;5413750;26;20221;-77
2024/04/16 03:07:37;;;;;;;2.77;0.80;;;4.00;99.90;;;;;;5422625;26;20230;-77
2024/04/16 03:10:03;;;;;;;2.20;0.70;;;4.00;99.90;;;;;;5432320;26;20265;-77
2024/04/16 03:12:28;;;;;;;2.57;0.80;;;3.90;99.90;;;;;;5413863;26;20825;-77
2024/04/16 03:14:54;;;;;;;2.20;0.80;;;3.90;99.90;;;;;;5414440;26;20645;-77
2024/04/16 03:17:20;;;;;;;2.60;1.00;;;3.90;99.90;;;;;;5416766;26;20232;-77
2024/04/16 03:19:46;;;;;;;3.63;1.50;;;3.80;99.90;;;;;;5422524;26;20283;-77
2024/04/16 03:22:11;;;;;;;2.13;0.90;;;3.80;99.90;;;;;;5413776;26;20918;-77
2024/04/16 03:24:37;;;;;;;2.90;0.80;;;3.80;99.90;;;;;;5420920;26;20246;-77
2024/04/16 03:27:03;;;;;;;4.50;1.97;;;3.70;99.90;;;;;;5419493;26;20230;-77
2024/04/16 03:29:28;;;;;;;2.30;0.90;;;3.80;99.90;;;;;;5412967;26;20223;-77
2024/04/16 03:31:54;;;;;;;3.63;0.77;;;3.80;99.90;;;;;;5411976;26;20757;-77
2024/04/16 03:34:19;;;;;;;3.17;1.30;;;3.70;99.90;;;;;;5414185;26;20295;-78
2024/04/16 03:36:45;;;;;;;2.57;1.00;;;3.70;99.90;;;;;;5425324;26;20240;-78
2024/04/16 03:39:10;;;;;;;3.80;1.40;;;3.60;99.90;;;;;;5413812;26;20230;-78
2024/04/16 03:41:37;;;;;;;6.57;0.90;;;3.50;99.90;;;;;;5408411;26;20229;-79
2024/04/16 03:44:02;;;;;;;2.30;0.90;;;3.40;99.90;;;;;;5413717;26;20285;-79
2024/04/16 03:46:28;;;;;;;2.70;0.70;;;3.40;99.90;;;;;;5413677;26;20684;-78
2024/04/16 03:48:53;;;;;;;2.90;1.10;;;3.50;99.90;;;;;;5414091;26;20709;-79
2024/04/16 03:51:19;;;;;;;2.87;1.00;;;3.50;99.90;;;;;;5417817;26;20610;-78
2024/04/16 03:53:45;;;;;;;2.37;0.73;;;3.50;99.90;;;;;;5419897;26;20249;-78
2024/04/16 03:56:11;;;;;;;1.80;0.63;;;3.50;99.90;;;;;;5428341;26;20460;-78
2024/04/16 03:58:44;;;;;;;3.57;0.90;;;3.50;99.90;;;;;;5413829;26;21350;-78
2024/04/16 04:01:10;;;;;;;2.27;0.70;;;3.70;99.90;;;;;;5413892;26;20276;-79
2024/04/16 04:03:35;;;;;;;2.60;0.90;;;3.70;99.90;;;;;;5413920;26;20461;-79
2024/04/16 04:06:01;;;;;;;2.20;0.93;;;3.70;99.90;;;;;;5443271;26;20230;-77
2024/04/16 04:08:27;;;;;;;3.20;1.10;;;3.70;99.90;;;;;;5406813;26;20228;-79
2024/04/16 04:10:53;;;;;;;2.57;0.60;;;3.70;99.90;;;;;;5411916;26;20862;-78
2024/04/16 04:13:19;;;;;;;2.30;1.10;;;3.70;99.90;;;;;;5413429;26;20234;-78
2024/04/16 04:15:45;;;;;;;3.50;0.77;;;3.70;99.90;;;;;;5413778;26;20512;-79
2024/04/16 04:18:10;;;;;;;3.37;1.00;;;3.80;99.90;;;;;;5414022;26;20883;-80
2024/04/16 04:20:39;;;;;;;1.90;0.70;;;3.80;99.90;;;;;;5449185;26;20261;-82
2024/04/16 04:23:04;;;;;;;2.33;0.90;;;3.80;99.90;;;;;;5434286;26;20229;-80
2024/04/16 04:25:30;;;;;;;2.23;0.80;;;3.70;99.90;;;;;;5417311;26;20506;-80
2024/04/16 04:27:56;;;;;;;2.27;1.03;;;3.70;99.90;;;;;;5414221;26;20234;-79
2024/04/16 04:30:21;;;;;;;1.90;0.70;;;3.70;99.90;;;;;;5416250;26;20224;-80
2024/04/16 04:32:50;;;;;;;2.40;0.80;;;3.60;99.90;;;;;;5415636;26;20235;-80
2024/04/16 04:35:16;;;;;;;3.77;0.90;;;3.50;99.90;;;;;;5417439;26;20734;-81
2024/04/16 04:37:42;;;;;;;2.17;1.03;;;3.50;99.90;;;;;;5430124;26;20477;-79
2024/04/16 04:40:08;;;;;;;4.00;0.93;;;3.50;99.90;;;;;;5414857;26;20476;-80
2024/04/16 04:42:33;;;;;;;2.50;1.00;;;3.40;99.90;;;;;;5416858;26;20222;-80
2024/04/16 04:44:59;;;;;;;3.03;0.80;;;3.40;99.90;;;;;;5417937;26;20552;-79
2024/04/16 04:47:25;;;;;;;3.63;1.17;;;3.40;99.90;;;;;;5414990;26;20343;-80
2024/04/16 04:49:50;;;;;;;2.70;0.90;;;3.40;99.90;;;;;;5412446;26;20235;-79
2024/04/16 04:52:16;;;;;;;2.67;1.00;;;3.30;99.90;;;;;;5416332;26;20294;-80
2024/04/16 04:54:41;;;;;;;2.33;0.80;;;3.30;99.90;;;;;;5427676;26;20282;-80
2024/04/16 04:57:07;;;;;;;3.37;0.90;;;3.30;99.90;;;;;;5413042;26;20291;-80
2024/04/16 04:59:33;;;;;;;3.40;0.80;;;3.40;99.90;;;;;;5414297;26;20275;-80
2024/04/16 05:01:58;;;;;;;3.30;0.83;;;3.40;99.90;;;;;;5413209;26;20231;-79
2024/04/16 05:04:24;;;;;;;3.10;0.93;;;3.40;99.90;;;;;;5415987;26;20280;-80
2024/04/16 05:06:50;;;;;;;4.17;0.93;;;3.30;99.90;;;;;;5432209;26;20774;-78
2024/04/16 05:09:16;;;;;;;3.20;0.80;;;3.20;99.90;;;;;;5414163;26;20268;-79
2024/04/16 05:11:41;;;;;;;3.73;0.97;;;3.20;99.90;;;;;;5410856;26;20576;-78
2024/04/16 05:14:09;;;;;;;2.30;0.70;;;3.20;99.90;;;;;;5413233;26;20282;-75
2024/04/16 05:16:35;;;;;;;2.50;1.00;;;3.20;99.90;;;;;;5426466;26;20771;-74
2024/04/16 05:19:02;;;;;;;2.10;0.50;;;3.20;99.90;;;;;;5425126;26;20490;-75
2024/04/16 05:21:27;;;;;;;4.23;2.00;;;3.30;99.90;;;;;;5411059;26;20528;-76
2024/04/16 05:23:53;;;;;;;6.20;1.53;;;3.30;99.90;;;;;;5410622;26;20533;-75
2024/04/16 05:26:21;;;;;;;2.70;1.10;;;3.30;99.90;;;;;;5410158;26;20809;-79
2024/04/16 05:28:47;;;;;;;2.17;0.70;;;3.40;99.90;;;;;;5412338;26;20222;-79
2024/04/16 05:31:13;;;;;;;2.53;0.70;;;3.30;99.90;;;;;;5409765;26;20555;-78
2024/04/16 05:33:38;;;;;;;3.70;1.03;;;3.30;99.90;;;;;;5409854;26;20244;-79
2024/04/16 05:36:04;;;;;;;1.90;0.67;;;3.30;99.90;;;;;;5412003;26;20867;-78
2024/04/16 05:38:30;;;;;;;2.10;0.90;;;3.40;99.90;;;;;;5403974;26;20236;-77
2024/04/16 05:40:55;;;;;;;8.50;4.83;;;3.50;99.90;;;;;;5410430;26;20914;-78
2024/04/16 05:43:21;;;;;;;3.93;0.80;;;3.60;99.90;;;;;;5411585;26;20235;-79
2024/04/16 05:45:46;;;;;;;5.27;1.40;;;3.60;99.90;;;;;;5412062;26;20224;-78
2024/04/16 05:48:12;;;;;;;2.73;0.80;;;3.60;99.90;;;;;;5411228;26;20231;-79
2024/04/16 05:50:38;;;;;;;3.90;0.77;;;3.60;99.90;;;;;;5410612;26;20759;-78
2024/04/16 05:53:03;;;;;;;2.60;0.90;;;3.60;99.90;;;;;;5410786;26;20705;-76
2024/04/16 05:55:29;;;;;;;2.80;0.80;;;3.70;99.90;;;;;;5415416;26;20714;-79
2024/04/16 05:57:54;;;;;;;2.23;0.70;;;3.70;99.90;;;;;;5415560;26;20273;-79
2024/04/16 06:00:21;;;;;;;2.03;0.70;;;3.80;99.90;;;;;;5430244;26;20277;-79
2024/04/16 06:02:47;;;;;;;1.70;0.50;;;4.00;99.90;;;;;;5414656;26;20274;-79
2024/04/16 06:05:13;;;;;;;3.03;0.80;;;4.10;99.90;;;;;;5446524;26;20472;-77
2024/04/16 06:07:39;;;;;;;3.60;0.73;;;4.10;99.90;;;;;;5419715;26;20330;-82
2024/04/16 06:10:05;;;;;;;1.83;0.60;;;4.20;99.90;;;;;;5420739;26;20472;-82
2024/04/16 06:12:31;;;;;;;4.73;0.63;;;4.20;99.90;;;;;;5410592;26;20263;-82
2024/04/16 06:14:58;;;;;;;1.83;0.60;;;4.20;99.90;;;;;;5418350;26;20465;-81
2024/04/16 06:17:23;;;;;;;2.07;0.70;;;4.20;99.90;;;;;;5434872;26;20298;-83
2024/04/16 06:19:49;;;;;;;1.77;0.50;;;4.20;99.90;;;;;;5434593;26;20514;-83
2024/04/16 06:22:15;;;;;;;10.43;5.40;;;4.30;99.90;;;;;;5418288;26;20275;-82
2024/04/16 06:24:41;;;;;;;1.90;0.50;;;4.20;99.90;;;;;;5433932;26;20254;-82
2024/04/16 06:27:06;;;;;;;2.33;0.97;;;4.30;99.90;;;;;;5417158;26;20475;-79
2024/04/16 06:29:32;;;;;;;1.60;0.50;;;4.20;99.90;;;;;;5434167;26;20235;-82
2024/04/16 06:31:57;;;;;;;1.90;0.57;;;4.20;99.90;;;;;;5418440;26;20279;-81
2024/04/16 06:34:23;;;;;;;1.90;0.60;;;4.10;99.90;;;;;;5418473;26;20327;-81
2024/04/16 06:36:48;;;;;;;1.80;0.50;;;4.20;99.90;;;;;;5417115;26;20232;-84
2024/04/16 06:39:14;;;;;;;2.93;0.70;;;4.20;99.90;;;;;;5419344;26;20228;-81
2024/04/16 06:41:40;;;;;;;1.70;0.50;;;4.20;99.90;;;;;;5411807;26;20260;-79
2024/04/16 06:44:05;;;;;;;2.73;0.80;;;4.30;99.90;;;;;;5420961;26;20348;-81
2024/04/16 06:46:31;;;;;;;1.93;0.50;;;4.40;99.90;;;;;;5403947;26;20614;-83
2024/04/16 06:48:56;;;;;;;2.43;0.50;;;4.50;99.90;;;;;;5411527;26;20267;-82
2024/04/16 06:51:22;;;;;;;1.80;0.50;;;4.60;99.90;;;;;;5442044;26;20253;-82
2024/04/16 06:53:47;;;;;;;2.87;0.50;;;4.60;99.90;;;;;;5428609;26;20245;-82
2024/04/16 06:56:13;;;;;;;1.60;0.40;;;4.70;99.90;;;;;;5419118;26;20761;-82
2024/04/16 06:58:39;;;;;;;1.90;0.40;;;4.70;99.90;;;;;;5418667;26;20227;-82
2024/04/16 07:01:04;;;;;;;2.50;0.50;;;4.60;99.90;;;;;;5429341;26;20719;-79
2024/04/16 07:03:30;;;;;;;1.80;0.40;;;4.70;99.90;;;;;;5414249;26;20262;-80
2024/04/16 07:05:55;;;;;;;2.20;0.60;;;4.80;99.90;;;;;;5416589;26;20271;-80
2024/04/16 07:08:22;;;;;;;2.03;0.40;;;4.90;99.90;;;;;;5417636;26;20341;-80
2024/04/16 07:10:49;;;;;;;2.00;0.50;;;4.80;99.90;;;;;;5417280;26;20225;-79
2024/04/16 07:13:18;;;;;;;1.93;0.50;;;4.80;99.90;;;;;;5409257;26;20819;-79
2024/04/16 07:15:44;;;;;;;1.97;0.60;;;4.90;99.90;;;;;;5408168;26;20522;-79
2024/04/16 07:18:10;;;;;;;1.67;0.40;;;5.10;99.90;;;;;;5427755;26;20534;-79
2024/04/16 07:20:36;;;;;;;2.37;0.70;;;5.30;99.90;;;;;;5418048;26;20452;-80
2024/04/16 07:23:01;;;;;;;2.10;0.57;;;5.50;99.90;;;;;;5416614;26;20244;-81
2024/04/16 07:25:27;;;;;;;1.70;0.50;;;5.70;99.90;;;;;;5420215;26;20244;-80
2024/04/16 07:27:53;;;;;;;1.70;0.40;;;5.80;99.90;;;;;;5433617;26;20329;-80
2024/04/16 07:30:19;;;;;;;1.97;0.43;;;6.00;99.90;;;;;;5417259;26;20224;-79
2024/04/16 07:32:45;;;;;;;1.70;0.50;;;6.00;99.90;;;;;;5418600;26;20274;-78
2024/04/16 07:35:10;;;;;;;1.70;0.40;;;6.00;99.90;;;;;;5433470;26;20850;-80
2024/04/16 07:37:36;;;;;;;2.23;0.50;;;6.10;99.90;;;;;;5418589;26;20573;-80
2024/04/16 07:40:03;;;;;;;1.80;0.40;;;6.30;99.90;;;;;;5433700;26;20226;-80
2024/04/16 07:42:28;;;;;;;2.13;0.80;;;6.50;99.90;;;;;;5495043;21;21591;-81
2024/04/16 07:44:54;;;;;;;1.80;0.50;;;6.60;99.90;;;;;;5399145;26;20460;-79
2024/04/16 07:47:21;;;;;;;1.50;0.30;;;6.80;99.90;;;;;;5355067;26;20247;-79
2024/04/16 07:49:47;;;;;;;1.60;0.40;;;6.80;99.90;;;;;;5391127;26;20539;-79
2024/04/16 07:52:12;;;;;;;3.10;0.60;;;6.80;99.90;;;;;;5384264;26;20464;-79
2024/04/16 07:54:38;;;;;;;2.30;0.60;;;6.90;99.90;;;;;;5377995;26;20272;-80
2024/04/16 07:57:04;;;;;;;1.90;0.77;;;7.10;99.90;;;;;;5343576;26;20234;-79
2024/04/16 07:59:29;;;;;;;3.57;0.70;;;7.30;99.90;;;;;;5363221;26;20272;-79
2024/04/16 08:01:55;;;;;;;1.70;0.50;;;7.50;99.90;;;;;;5376525;26;20226;-79
2024/04/16 08:04:20;;;;;;;2.00;0.47;;;7.80;99.90;;;;;;5374177;26;20271;-79
2024/04/16 08:06:48;;;;;;;1.83;0.50;;;7.80;99.90;;;;;;5336595;26;20747;-80
2024/04/16 08:09:13;;;;;;;2.13;0.50;;;7.70;99.90;;;;;;5342626;26;20260;-79
2024/04/16 08:11:39;;;;;;;1.83;0.83;;;7.70;99.90;;;;;;5367914;26;20454;-78
2024/04/16 08:14:05;;;;;;;1.80;0.43;;;7.70;99.90;;;;;;5374108;26;20235;-79
2024/04/16 08:16:30;;;;;;;2.23;0.57;;;7.70;99.90;;;;;;5359657;26;20235;-79
2024/04/16 08:18:56;;;;;;;1.70;0.50;;;7.40;99.90;;;;;;5342953;26;20272;-78
2024/04/16 08:21:22;;;;;;;2.40;0.50;;;7.20;99.90;;;;;;5368953;26;20733;-79
2024/04/16 08:23:54;;;;;;;1.60;0.60;;;7.20;99.90;;;;;;5332459;26;20526;-78
2024/04/16 08:26:20;;;;;;;2.17;0.40;;;7.30;99.90;;;;;;5336900;26;20465;-78
2024/04/16 08:28:46;;;;;;;2.13;0.40;;;7.40;99.90;;;;;;5362662;26;20451;-79
2024/04/16 08:31:11;;;;;;;1.90;0.80;;;7.30;99.90;;;;;;5374563;26;20222;-78
2024/04/16 08:33:37;;;;;;;2.23;0.70;;;7.30;99.90;;;;;;5376653;26;20239;-79
2024/04/16 08:36:03;;;;;;;4.00;0.90;;;7.40;99.90;;;;;;5371803;26;20225;-79
2024/04/16 08:38:28;;;;;;;2.00;0.80;;;7.20;99.90;;;;;;5372988;26;20228;-79
2024/04/16 08:40:56;;;;;;;3.23;0.50;;;7.10;99.90;;;;;;5365103;26;20543;-79
2024/04/16 08:43:24;;;;;;;2.67;0.57;;;7.20;99.90;;;;;;5371107;26;20235;-79
2024/04/16 08:45:51;;;;;;;2.33;0.57;;;7.50;99.90;;;;;;5334932;26;20455;-79
2024/04/16 08:48:17;;;;;;;2.77;0.40;;;7.90;99.90;;;;;;5369253;26;20506;-78
2024/04/16 08:50:44;;;;;;;2.07;0.50;;;8.30;99.90;;;;;;5375537;26;20499;-78
2024/04/16 08:53:11;;;;;;;2.70;0.40;;;9.00;99.90;;;;;;5340942;26;20460;-79
2024/04/16 08:55:38;;;;;;;2.30;0.43;;;9.50;99.90;;;;;;5365968;26;20452;-79
2024/04/16 08:58:04;;;;;;;2.37;0.50;;;10.00;99.90;;;;;;5374243;26;20479;-79
2024/04/16 09:00:30;;;;;;;4.50;0.90;;;10.10;99.90;;;;;;5357857;26;20557;-79
2024/04/16 09:02:57;;;;;;;2.00;0.50;;;9.50;99.90;;;;;;5335554;26;20573;-79
2024/04/16 09:05:23;;;;;;;1.80;0.30;;;9.70;99.90;;;;;;5341659;26;20510;-81
2024/04/16 09:07:48;;;;;;;1.70;0.50;;;9.70;99.90;;;;;;5366942;26;20460;-83
2024/04/16 09:10:22;;;;;;;1.93;0.50;;;9.50;99.90;;;;;;5330666;26;20503;-81
2024/04/16 09:12:49;;;;;;;4.23;0.80;;;9.40;99.90;;;;;;5337434;26;20238;-82
2024/04/16 09:15:16;;;;;;;2.07;0.50;;;9.40;99.90;;;;;;5333631;26;20900;-81
2024/04/16 09:17:52;;;;;;;2.40;0.50;;;9.20;99.90;;;;;;5366522;26;20450;-82
2024/04/16 09:20:25;;;;;;;1.60;0.50;;;8.90;99.90;;;;;;5364512;26;20790;-76
2024/04/16 09:22:52;;;;;;;4.60;0.57;;;9.10;99.90;;;;;;5335930;26;20980;-82
2024/04/16 09:25:19;;;;;;;2.70;0.60;;;9.40;99.90;;;;;;5339623;26;20985;-81
2024/04/16 09:27:49;;;;;;;2.70;0.90;;;9.60;99.90;;;;;;5371258;26;20516;-82
2024/04/16 09:30:15;;;;;;;2.33;0.60;;;9.60;99.90;;;;;;5370224;26;20506;-80
2024/04/16 09:32:44;;;;;;;1.90;0.60;;;9.30;99.90;;;;;;5376574;26;20559;-83
2024/04/16 09:35:09;;;;;;;2.83;0.70;;;9.40;99.90;;;;;;5336020;26;20579;-81
2024/04/16 09:37:35;;;;;;;2.83;0.73;;;9.60;99.90;;;;;;5361277;26;21028;-79
2024/04/16 09:40:01;;;;;;;2.20;0.73;;;9.90;99.90;;;;;;5373110;26;20268;-80
2024/04/16 09:42:27;;;;;;;3.03;0.70;;;10.20;99.90;;;;;;5378300;26;20328;-81
2024/04/16 09:44:54;;;;;;;2.87;0.77;;;10.30;99.90;;;;;;5350514;26;20265;-81
2024/04/16 09:47:22;;;;;;;2.63;0.70;;;10.40;99.90;;;;;;5343677;26;20459;-81
2024/04/16 09:49:50;;;;;;;3.30;0.80;;;10.40;99.90;;;;;;5349976;26;20844;-81
2024/04/16 09:52:18;;;;;;;2.60;0.63;;;10.30;99.90;;;;;;5334040;26;20513;-80
2024/04/16 09:54:45;;;;;;;3.70;0.70;;;10.20;99.90;;;;;;5374395;26;20473;-80
2024/04/16 09:57:11;;;;;;;3.20;0.63;;;10.10;99.90;;;;;;5357145;26;20469;-80
2024/04/16 09:59:38;;;;;;;2.10;0.50;;;10.00;99.90;;;;;;5378217;26;20499;-81
2024/04/16 10:02:04;;;;;;;3.20;0.77;;;10.00;99.90;;;;;;5348529;26;20467;-81
2024/04/16 10:04:32;;;;;;;2.27;0.73;;;10.20;99.90;;;;;;5377088;26;20862;-81
2024/04/16 10:06:57;;;;;;;2.40;0.70;;;10.30;99.90;;;;;;5380937;26;20459;-81
2024/04/16 10:09:24;;;;;;;3.10;0.90;;;10.70;99.90;;;;;;5349122;26;20510;-81
2024/04/16 10:11:50;;;;;;;5.97;0.83;;;10.60;99.90;;;;;;5381657;26;20308;-81
2024/04/16 10:14:18;;;;;;;2.50;1.20;;;10.80;99.90;;;;;;5377559;26;20455;-81
2024/04/16 10:16:44;;;;;;;2.60;0.80;;;10.70;97.70;;;;;;5342034;26;20838;-81
2024/04/16 10:19:09;;;;;;;4.80;1.10;;;10.30;97.50;;;;;;5333285;26;20512;-80
2024/04/16 10:21:39;;;;;;;6.27;0.90;;;10.20;96.80;;;;;;5374003;26;20503;-80
2024/04/16 10:24:09;;;;;;;3.37;0.97;;;10.20;98.80;;;;;;5370953;26;20272;-81
2024/04/16 10:26:41;;;;;;;2.23;0.67;;;10.40;98.80;;;;;;5343871;26;20476;-81
2024/04/16 10:29:26;;;;;;;3.07;0.60;;;10.60;98.40;;;;;;5371997;26;20465;-82
2024/04/16 10:31:55;;;;;;;5.30;0.90;;;10.70;96.20;;;;;;5374722;26;20507;-80
2024/04/16 10:34:27;;;;;;;2.27;0.60;;;10.50;98.20;;;;;;5375565;26;20585;-81
2024/04/16 10:36:55;;;;;;;2.07;0.57;;;10.50;97.40;;;;;;5382173;26;20507;-80
2024/04/16 10:39:29;;;;;;;2.77;0.60;;;10.60;97.90;;;;;;5342572;26;20513;-80
2024/04/16 10:41:57;;;;;;;2.17;0.60;;;10.80;99.90;;;;;;5348711;26;20581;-80
2024/04/16 10:44:23;;;;;;;2.70;0.60;;;10.90;98.10;;;;;;5345268;26;20476;-80
2024/04/16 10:46:51;;;;;;;1.97;0.60;;;10.90;97.30;;;;;;5377925;26;20477;-79
2024/04/16 10:49:18;;;;;;;3.40;0.60;;;10.80;97.20;;;;;;5339998;26;20467;-78
2024/04/16 10:51:45;;;;;;;2.33;0.70;;;10.50;97.10;;;;;;5372956;26;20519;-80
2024/04/16 10:54:11;;;;;;;4.10;0.60;;;10.20;97.00;;;;;;5340305;26;20472;-79
2024/04/16 10:56:37;;;;;;;2.00;0.50;;;10.20;99.30;;;;;;5379067;26;20562;-80
2024/04/16 10:59:06;;;;;;;5.20;1.00;;;10.20;98.40;;;;;;5384860;26;20346;-80
2024/04/16 11:01:33;;;;;;;3.57;0.60;;;10.30;97.30;;;;;;5384074;26;20528;-81
2024/04/16 11:04:17;;;;;;;1.70;0.53;;;10.30;95.20;;;;;;5386428;26;20471;-80
2024/04/16 11:06:43;;;;;;;4.67;0.70;;;10.50;97.50;;;;;;5355178;26;20519;-79
2024/04/16 11:09:10;;;;;;;2.00;0.80;;;10.60;95.60;;;;;;5393774;26;20459;-80
2024/04/16 11:11:38;;;;;;;2.33;0.70;;;10.80;95.40;;;;;;5384098;26;20469;-80
2024/04/16 11:14:07;;;;;;;4.43;0.60;;;10.90;93.20;;;;;;5385814;26;20467;-80
2024/04/16 11:16:33;;;;;;;2.23;0.83;;;11.00;94.50;;;;;;5384388;26;20919;-80
2024/04/16 11:18:59;;;;;;;2.93;0.90;;;11.00;95.40;;;;;;5355745;26;20509;-80
2024/04/16 11:21:29;;;;;;;2.00;0.60;;;11.30;94.50;;;;;;5353908;26;20465;-81
2024/04/16 11:23:57;;;;;;;2.23;0.60;;;11.10;93.60;;;;;;5354681;26;21048;-79
2024/04/16 11:26:23;;;;;;;2.80;0.50;;;10.90;94.60;;;;;;5384561;26;20495;-81
2024/04/16 11:28:52;;;;;;;4.03;0.60;;;11.10;94.80;;;;;;5354127;26;21005;-80
2024/04/16 11:31:18;;;;;;;5.60;0.80;;;11.20;93.20;;;;;;5384082;26;20320;-81
2024/04/16 11:33:44;;;;;;;1.70;0.60;;;10.90;93.50;;;;;;5384865;26;20529;-80
2024/04/16 11:36:10;;;;;;;1.83;0.60;;;10.80;93.30;;;;;;5389753;26;20456;-80
2024/04/16 11:38:36;;;;;;;2.40;0.70;;;10.80;93.80;;;;;;5358529;26;20516;-79
2024/04/16 11:41:03;;;;;;;2.57;0.70;;;10.90;93.80;;;;;;5373174;26;20859;-81
2024/04/16 11:43:38;;;;;;;2.13;0.60;;;11.00;94.50;;;;;;5380007;26;20571;-81
2024/04/16 11:46:07;;;;;;;2.20;0.60;;;11.10;94.70;;;;;;5365559;26;20444;-82
2024/04/16 11:48:34;;;;;;;6.60;0.90;;;10.90;95.90;;;;;;5371162;26;21013;-81
2024/04/16 11:51:00;;;;;;;2.43;0.50;;;10.80;95.10;;;;;;5368811;26;20833;-81
2024/04/16 11:53:26;;;;;;;1.87;0.70;;;10.90;93.70;;;;;;5368952;26;20550;-81
2024/04/16 11:55:51;;;;;;;1.97;0.53;;;10.90;93.10;;;;;;5372563;26;20227;-81
2024/04/16 11:58:17;;;;;;;2.60;0.57;;;11.10;93.90;;;;;;5324175;26;20251;-80
2024/04/16 12:00:42;;;;;;;2.23;0.70;;;10.90;93.70;;;;;;5350046;26;20222;-80
2024/04/16 12:03:08;;;;;;;2.00;0.67;;;10.80;93.10;;;;;;5352661;26;20285;-80
2024/04/16 12:05:34;;;;;;;2.37;0.50;;;10.80;93.90;;;;;;5352374;26;20273;-79
2024/04/16 12:08:01;;;;;;;3.33;0.60;;;11.00;93.50;;;;;;5350647;26;20567;-79
2024/04/16 12:10:30;;;;;;;4.73;0.70;;;10.90;92.50;;;;;;5320042;26;20465;-80
2024/04/16 12:12:56;;;;;;;4.47;0.97;;;10.70;91.20;;;;;;5352121;26;20579;-79
2024/04/16 12:15:22;;;;;;;1.83;0.60;;;10.80;90.90;;;;;;5350705;26;20464;-80
2024/04/16 12:17:47;;;;;;;3.63;0.53;;;10.90;91.40;;;;;;5350039;26;20232;-80
2024/04/16 12:20:13;;;;;;;2.70;0.70;;;11.10;91.50;;;;;;5351317;26;21036;-79
2024/04/16 12:22:39;;;;;;;2.47;0.60;;;11.40;91.30;;;;;;5351224;26;20292;-80
2024/04/16 12:25:04;;;;;;;2.27;0.60;;;11.60;92.50;;;;;;5363370;26;20765;-81
2024/04/16 12:27:30;;;;;;;3.87;0.70;;;11.60;89.80;;;;;;5353715;26;20573;-79
2024/04/16 12:29:56;;;;;;;2.10;0.60;;;11.50;92.10;;;;;;5351678;26;20282;-80
2024/04/16 12:32:22;;;;;;;2.00;0.60;;;11.30;89.90;;;;;;5321118;26;20510;-81
2024/04/16 12:34:47;;;;;;;3.43;0.70;;;10.90;91.20;;;;;;5318199;26;20231;-80
2024/04/16 12:37:13;;;;;;;3.60;0.60;;;11.10;91.30;;;;;;5349609;26;20243;-82
2024/04/16 12:39:38;;;;;;;3.17;0.70;;;11.30;91.00;;;;;;5352168;26;20230;-80
2024/04/16 12:42:04;;;;;;;4.23;0.60;;;11.30;90.80;;;;;;5332042;26;20264;-80
2024/04/16 12:44:30;;;;;;;3.73;0.80;;;11.30;92.30;;;;;;5362554;26;20238;-80
2024/04/16 12:46:55;;;;;;;2.07;0.70;;;11.40;91.10;;;;;;5351495;26;20639;-80
2024/04/16 12:49:24;;;;;;;2.70;0.60;;;11.40;89.70;;;;;;5353295;26;20234;-81
2024/04/16 12:51:51;;;;;;;2.27;0.50;;;11.50;92.00;;;;;;5321801;26;20291;-81
2024/04/16 12:54:20;;;;;;;2.83;0.70;;;11.70;91.40;;;;;;5320176;26;20582;-82
2024/04/16 12:56:46;;;;;;;2.80;0.70;;;11.90;92.70;;;;;;5319421;26;20475;-81
2024/04/16 12:59:12;;;;;;;3.27;0.87;;;12.20;91.20;;;;;;5348580;26;20514;-81